EXS3BA ENBR-EGBB
Flight info
| Callsign | EXS3BA |
|---|---|
| Flight time | 1h 31m |
| Altitude | 36000 |
| Route | EPOTU DCT KLONN DCT DIGBI DCT OMENU |
| Aircraft | B738/M-SDE2E3FGHIRWXY/LB1 |
Departure
| Time | 2026-05-06 20:57 |
|---|---|
| Airport | Bergen Airport, Flesland (ENBR) |
Arrival
| Time | 2026-05-06 22:28 |
|---|---|
| Airport | Birmingham Airport (EGBB) |
| Time | Latitude | Longitude | Altitude | Speed | Heading |
|---|---|---|---|---|---|
| 2026-05-06 20:15 | 60.28858 | 5.22566 | 145 ft | 0 kts | 59° |
| 2026-05-06 20:46 | 60.28850 | 5.22538 | 172 ft | 4 kts | 59° |
| 2026-05-06 20:46 | 60.28836 | 5.22491 | 169 ft | 4 kts | 59° |
| 2026-05-06 20:46 | 60.28821 | 5.22452 | 167 ft | 4 kts | 24° |
| 2026-05-06 20:46 | 60.28796 | 5.22444 | 166 ft | 4 kts | 352° |
| 2026-05-06 20:47 | 60.28785 | 5.22448 | 165 ft | 1 kts | 351° |
| 2026-05-06 20:47 | 60.28784 | 5.22448 | 165 ft | 0 kts | 351° |
| 2026-05-06 20:49 | 60.28793 | 5.22445 | 165 ft | 3 kts | 351° |
| 2026-05-06 20:49 | 60.28847 | 5.22426 | 166 ft | 12 kts | 351° |
| 2026-05-06 20:49 | 60.28927 | 5.22373 | 164 ft | 13 kts | 302° |
| 2026-05-06 20:50 | 60.28993 | 5.22255 | 161 ft | 14 kts | 351° |
| 2026-05-06 20:50 | 60.29087 | 5.22223 | 161 ft | 14 kts | 351° |
| 2026-05-06 20:50 | 60.29182 | 5.22192 | 162 ft | 14 kts | 351° |
| 2026-05-06 20:50 | 60.29285 | 5.22157 | 161 ft | 18 kts | 351° |
| 2026-05-06 20:51 | 60.29422 | 5.22112 | 156 ft | 22 kts | 351° |
| 2026-05-06 20:51 | 60.29583 | 5.22057 | 149 ft | 25 kts | 350° |
| 2026-05-06 20:51 | 60.29758 | 5.21997 | 147 ft | 25 kts | 350° |
| 2026-05-06 20:51 | 60.29922 | 5.21942 | 154 ft | 23 kts | 351° |
| 2026-05-06 20:52 | 60.30066 | 5.21895 | 159 ft | 22 kts | 350° |
| 2026-05-06 20:52 | 60.30218 | 5.21843 | 163 ft | 22 kts | 350° |
| 2026-05-06 20:52 | 60.30365 | 5.21793 | 170 ft | 21 kts | 350° |
| 2026-05-06 20:52 | 60.30509 | 5.21744 | 176 ft | 21 kts | 350° |
| 2026-05-06 20:53 | 60.30631 | 5.21702 | 180 ft | 13 kts | 343° |
| 2026-05-06 20:53 | 60.30663 | 5.21596 | 181 ft | 1 kts | 261° |
| 2026-05-06 20:53 | 60.30663 | 5.21595 | 181 ft | 0 kts | 261° |
| 2026-05-06 20:55 | 60.30660 | 5.21558 | 182 ft | 7 kts | 261° |
| 2026-05-06 20:56 | 60.30651 | 5.21432 | 183 ft | 9 kts | 256° |
| 2026-05-06 20:56 | 60.30605 | 5.21392 | 182 ft | 0 kts | 171° |
| 2026-05-06 20:56 | 60.30599 | 5.21395 | 182 ft | 3 kts | 171° |
| 2026-05-06 20:56 | 60.30557 | 5.21408 | 178 ft | 15 kts | 171° |
| 2026-05-06 20:57 | 60.30207 | 5.21525 | 162 ft | 88 kts | 171° |
| 2026-05-06 20:57 | 60.29386 | 5.21801 | 154 ft | 149 kts | 171° |
| 2026-05-06 20:57 | 60.28307 | 5.22156 | 687 ft | 155 kts | 171° |
| 2026-05-06 20:57 | 60.27237 | 5.22501 | 1437 ft | 162 kts | 171° |
| 2026-05-06 20:58 | 60.26095 | 5.22862 | 2068 ft | 174 kts | 172° |
| 2026-05-06 20:58 | 60.24788 | 5.23284 | 2399 ft | 204 kts | 171° |
| 2026-05-06 20:58 | 60.23300 | 5.23773 | 2654 ft | 227 kts | 171° |
| 2026-05-06 20:58 | 60.21686 | 5.24301 | 3000 ft | 247 kts | 174° |
| 2026-05-06 20:59 | 60.19972 | 5.23821 | 3552 ft | 256 kts | 210° |
| 2026-05-06 20:59 | 60.18760 | 5.21311 | 4491 ft | 252 kts | 246° |
| 2026-05-06 20:59 | 60.18390 | 5.17910 | 5425 ft | 252 kts | 268° |
| 2026-05-06 20:59 | 60.18450 | 5.14384 | 5950 ft | 253 kts | 275° |
| 2026-05-06 21:00 | 60.18620 | 5.10834 | 6783 ft | 256 kts | 276° |
| 2026-05-06 21:00 | 60.18798 | 5.07271 | 7699 ft | 256 kts | 276° |
| 2026-05-06 21:00 | 60.18967 | 5.03689 | 8558 ft | 259 kts | 275° |
| 2026-05-06 21:00 | 60.19127 | 5.00071 | 9428 ft | 261 kts | 275° |
| 2026-05-06 21:01 | 60.19281 | 4.96425 | 10264 ft | 263 kts | 275° |
| 2026-05-06 21:01 | 60.19434 | 4.92642 | 10620 ft | 284 kts | 275° |
| 2026-05-06 21:01 | 60.19595 | 4.88538 | 10914 ft | 302 kts | 274° |
| 2026-05-06 21:01 | 60.19466 | 4.84293 | 11598 ft | 309 kts | 255° |
| 2026-05-06 21:02 | 60.18477 | 4.80455 | 12523 ft | 312 kts | 236° |
| 2026-05-06 21:02 | 60.17121 | 4.77096 | 13451 ft | 314 kts | 234° |
| 2026-05-06 21:02 | 60.15700 | 4.73734 | 14258 ft | 317 kts | 233° |
| 2026-05-06 21:02 | 60.14258 | 4.70349 | 15036 ft | 320 kts | 234° |
| 2026-05-06 21:03 | 60.12809 | 4.66937 | 15849 ft | 322 kts | 234° |
| 2026-05-06 21:03 | 60.11352 | 4.63489 | 16602 ft | 327 kts | 235° |
| 2026-05-06 21:03 | 60.09877 | 4.59985 | 17369 ft | 330 kts | 235° |
| 2026-05-06 21:03 | 60.08394 | 4.56458 | 18107 ft | 333 kts | 235° |
| 2026-05-06 21:04 | 60.06891 | 4.52879 | 18795 ft | 337 kts | 235° |
| 2026-05-06 21:04 | 60.05383 | 4.49293 | 19527 ft | 337 kts | 236° |
| 2026-05-06 21:04 | 60.03867 | 4.45693 | 20255 ft | 339 kts | 236° |
| 2026-05-06 21:04 | 60.02346 | 4.42080 | 20954 ft | 341 kts | 236° |
| 2026-05-06 21:05 | 60.00815 | 4.38450 | 21624 ft | 343 kts | 236° |
| 2026-05-06 21:05 | 59.99273 | 4.34799 | 22296 ft | 345 kts | 236° |
| 2026-05-06 21:05 | 59.97718 | 4.31122 | 22960 ft | 347 kts | 236° |
| 2026-05-06 21:05 | 59.96154 | 4.27431 | 23600 ft | 349 kts | 236° |
| 2026-05-06 21:06 | 59.94575 | 4.23710 | 24120 ft | 352 kts | 236° |
| 2026-05-06 21:06 | 59.92989 | 4.19974 | 24601 ft | 355 kts | 236° |
| 2026-05-06 21:06 | 59.91405 | 4.16254 | 25077 ft | 358 kts | 236° |
| 2026-05-06 21:06 | 59.89782 | 4.12460 | 25559 ft | 361 kts | 234° |
| 2026-05-06 21:07 | 59.87932 | 4.08974 | 26027 ft | 372 kts | 226° |
| 2026-05-06 21:07 | 59.85793 | 4.05962 | 26500 ft | 381 kts | 219° |
| 2026-05-06 21:07 | 59.83395 | 4.03542 | 26942 ft | 391 kts | 212° |
| 2026-05-06 21:07 | 59.80899 | 4.01350 | 27309 ft | 394 kts | 211° |
| 2026-05-06 21:08 | 59.78576 | 3.99356 | 27708 ft | 398 kts | 211° |
| 2026-05-06 21:08 | 59.76023 | 3.97175 | 28121 ft | 400 kts | 211° |
| 2026-05-06 21:08 | 59.73455 | 3.94976 | 28532 ft | 403 kts | 211° |
| 2026-05-06 21:08 | 59.70873 | 3.92757 | 28939 ft | 406 kts | 211° |
| 2026-05-06 21:09 | 59.68259 | 3.90506 | 29189 ft | 412 kts | 212° |
| 2026-05-06 21:09 | 59.65618 | 3.88221 | 29519 ft | 416 kts | 212° |
| 2026-05-06 21:09 | 59.62959 | 3.85923 | 29942 ft | 417 kts | 212° |
| 2026-05-06 21:09 | 59.60294 | 3.83623 | 30300 ft | 419 kts | 212° |
| 2026-05-06 21:10 | 59.57619 | 3.81318 | 30665 ft | 419 kts | 212° |
| 2026-05-06 21:10 | 59.54947 | 3.79022 | 31085 ft | 419 kts | 211° |
| 2026-05-06 21:10 | 59.52279 | 3.76733 | 31430 ft | 418 kts | 211° |
| 2026-05-06 21:10 | 59.49616 | 3.74450 | 31842 ft | 417 kts | 211° |
| 2026-05-06 21:11 | 59.46957 | 3.72175 | 32251 ft | 416 kts | 211° |
| 2026-05-06 21:11 | 59.44321 | 3.69922 | 32657 ft | 416 kts | 211° |
| 2026-05-06 21:11 | 59.41726 | 3.67707 | 33054 ft | 415 kts | 211° |
| 2026-05-06 21:11 | 59.39114 | 3.65481 | 33451 ft | 414 kts | 211° |
| 2026-05-06 21:12 | 59.36467 | 3.63229 | 33841 ft | 414 kts | 210° |
| 2026-05-06 21:12 | 59.33826 | 3.60986 | 34184 ft | 414 kts | 210° |
| 2026-05-06 21:12 | 59.31182 | 3.58743 | 34447 ft | 414 kts | 210° |
| 2026-05-06 21:12 | 59.28537 | 3.56502 | 34678 ft | 416 kts | 210° |
| 2026-05-06 21:13 | 59.26021 | 3.54375 | 34880 ft | 417 kts | 210° |
| 2026-05-06 21:13 | 59.23360 | 3.52130 | 35163 ft | 416 kts | 210° |
| 2026-05-06 21:13 | 59.20698 | 3.49888 | 35392 ft | 418 kts | 209° |
| 2026-05-06 21:13 | 59.18024 | 3.47639 | 35620 ft | 419 kts | 209° |
| 2026-05-06 21:14 | 59.16248 | 3.46147 | 35775 ft | 420 kts | 209° |
| 2026-05-06 21:14 | 59.13561 | 3.43895 | 36033 ft | 420 kts | 209° |
| 2026-05-06 21:14 | 59.10857 | 3.41631 | 36045 ft | 425 kts | 209° |
| 2026-05-06 21:15 | 59.05411 | 3.37085 | 36058 ft | 425 kts | 209° |
| 2026-05-06 21:15 | 59.00021 | 3.32611 | 36059 ft | 418 kts | 209° |
| 2026-05-06 21:16 | 58.94681 | 3.28184 | 36059 ft | 417 kts | 209° |
| 2026-05-06 21:16 | 58.89337 | 3.23765 | 36068 ft | 418 kts | 209° |
| 2026-05-06 21:17 | 58.83988 | 3.19359 | 36060 ft | 418 kts | 209° |
| 2026-05-06 21:17 | 58.78621 | 3.14954 | 36069 ft | 419 kts | 209° |
| 2026-05-06 21:18 | 58.73282 | 3.10587 | 36070 ft | 420 kts | 208° |
| 2026-05-06 21:18 | 58.67891 | 3.06191 | 36067 ft | 421 kts | 208° |
| 2026-05-06 21:19 | 58.62490 | 3.01804 | 36073 ft | 421 kts | 208° |
| 2026-05-06 21:19 | 58.57208 | 2.97526 | 36068 ft | 422 kts | 208° |
| 2026-05-06 21:20 | 58.51802 | 2.93162 | 36072 ft | 422 kts | 208° |
| 2026-05-06 21:20 | 58.46390 | 2.88807 | 36073 ft | 422 kts | 208° |
| 2026-05-06 21:21 | 58.41010 | 2.84494 | 36069 ft | 421 kts | 208° |
| 2026-05-06 21:21 | 58.35997 | 2.79061 | 36081 ft | 412 kts | 220° |
| 2026-05-06 21:22 | 58.31330 | 2.72717 | 36074 ft | 412 kts | 220° |
| 2026-05-06 21:22 | 58.26656 | 2.66401 | 36073 ft | 412 kts | 220° |
| 2026-05-06 21:23 | 58.21963 | 2.60126 | 36075 ft | 413 kts | 220° |
| 2026-05-06 21:23 | 58.17259 | 2.53880 | 36047 ft | 413 kts | 220° |
| 2026-05-06 21:24 | 58.12550 | 2.47653 | 36069 ft | 413 kts | 220° |
| 2026-05-06 21:24 | 58.07864 | 2.41478 | 36069 ft | 413 kts | 220° |
| 2026-05-06 21:25 | 58.03142 | 2.35275 | 36079 ft | 414 kts | 220° |
| 2026-05-06 21:25 | 57.98410 | 2.29080 | 36074 ft | 415 kts | 220° |
| 2026-05-06 21:26 | 57.93660 | 2.22881 | 36079 ft | 416 kts | 220° |
| 2026-05-06 21:26 | 57.88899 | 2.16688 | 36057 ft | 416 kts | 219° |
| 2026-05-06 21:27 | 57.84126 | 2.10500 | 36071 ft | 417 kts | 219° |
| 2026-05-06 21:27 | 57.79340 | 2.04315 | 36079 ft | 418 kts | 219° |
| 2026-05-06 21:28 | 57.74655 | 1.98281 | 36076 ft | 419 kts | 219° |
| 2026-05-06 21:28 | 57.69851 | 1.92113 | 36077 ft | 419 kts | 219° |
| 2026-05-06 21:29 | 57.65029 | 1.85942 | 36077 ft | 420 kts | 219° |
| 2026-05-06 21:29 | 57.60200 | 1.79784 | 36067 ft | 420 kts | 219° |
| 2026-05-06 21:30 | 57.55367 | 1.73640 | 36080 ft | 421 kts | 219° |
| 2026-05-06 21:30 | 57.50556 | 1.67543 | 36078 ft | 422 kts | 219° |
| 2026-05-06 21:31 | 57.45690 | 1.61395 | 36078 ft | 423 kts | 219° |
| 2026-05-06 21:31 | 57.40806 | 1.55247 | 36076 ft | 424 kts | 219° |
| 2026-05-06 21:32 | 57.35913 | 1.49108 | 36050 ft | 425 kts | 219° |
| 2026-05-06 21:32 | 57.28542 | 1.39897 | 36075 ft | 426 kts | 219° |
| 2026-05-06 21:33 | 57.23616 | 1.33767 | 36077 ft | 427 kts | 219° |
| 2026-05-06 21:33 | 57.18678 | 1.27642 | 36077 ft | 428 kts | 219° |
| 2026-05-06 21:34 | 57.13728 | 1.21521 | 36079 ft | 428 kts | 219° |
| 2026-05-06 21:34 | 57.08770 | 1.15412 | 36044 ft | 429 kts | 219° |
| 2026-05-06 21:35 | 57.03829 | 1.09343 | 36069 ft | 429 kts | 219° |
| 2026-05-06 21:35 | 56.98898 | 1.03305 | 36082 ft | 430 kts | 219° |
| 2026-05-06 21:36 | 56.94026 | 0.97358 | 36077 ft | 431 kts | 218° |
| 2026-05-06 21:36 | 56.89018 | 0.91266 | 36078 ft | 433 kts | 218° |
| 2026-05-06 21:37 | 56.83994 | 0.85174 | 36077 ft | 433 kts | 218° |
| 2026-05-06 21:37 | 56.78961 | 0.79093 | 36073 ft | 434 kts | 218° |
| 2026-05-06 21:38 | 56.73921 | 0.73021 | 36077 ft | 435 kts | 218° |
| 2026-05-06 21:38 | 56.68869 | 0.66956 | 36073 ft | 435 kts | 218° |
| 2026-05-06 21:39 | 56.63809 | 0.60900 | 36076 ft | 436 kts | 218° |
| 2026-05-06 21:39 | 56.58742 | 0.54856 | 36067 ft | 436 kts | 218° |
| 2026-05-06 21:40 | 56.53664 | 0.48819 | 36065 ft | 436 kts | 218° |
| 2026-05-06 21:40 | 56.48585 | 0.42800 | 36070 ft | 436 kts | 218° |
| 2026-05-06 21:41 | 56.43500 | 0.36793 | 36075 ft | 437 kts | 218° |
| 2026-05-06 21:41 | 56.38429 | 0.30822 | 36076 ft | 438 kts | 218° |
| 2026-05-06 21:42 | 56.33314 | 0.24819 | 36070 ft | 439 kts | 218° |
| 2026-05-06 21:42 | 56.28191 | 0.18825 | 36055 ft | 439 kts | 217° |
| 2026-05-06 21:43 | 56.23059 | 0.12842 | 36071 ft | 440 kts | 217° |
| 2026-05-06 21:43 | 56.17920 | 0.06869 | 36068 ft | 440 kts | 217° |
| 2026-05-06 21:44 | 56.12768 | 0.00901 | 36069 ft | 440 kts | 217° |
| 2026-05-06 21:44 | 56.07730 | -0.04916 | 36060 ft | 441 kts | 217° |
| 2026-05-06 21:45 | 56.02572 | -0.10854 | 36066 ft | 441 kts | 217° |
| 2026-05-06 21:45 | 55.97421 | -0.16764 | 36066 ft | 441 kts | 217° |
| 2026-05-06 21:46 | 55.92258 | -0.22670 | 36066 ft | 441 kts | 217° |
| 2026-05-06 21:46 | 55.87091 | -0.28560 | 36065 ft | 441 kts | 217° |
| 2026-05-06 21:47 | 55.81929 | -0.34427 | 36067 ft | 440 kts | 217° |
| 2026-05-06 21:47 | 55.76796 | -0.40242 | 36048 ft | 440 kts | 217° |
| 2026-05-06 21:48 | 55.71630 | -0.46075 | 36059 ft | 440 kts | 217° |
| 2026-05-06 21:48 | 55.66458 | -0.51897 | 36065 ft | 440 kts | 217° |
| 2026-05-06 21:49 | 55.61284 | -0.57703 | 36065 ft | 441 kts | 217° |
| 2026-05-06 21:49 | 55.56095 | -0.63508 | 36066 ft | 441 kts | 217° |
| 2026-05-06 21:50 | 55.50906 | -0.69293 | 36044 ft | 441 kts | 216° |
| 2026-05-06 21:50 | 55.45706 | -0.75073 | 36062 ft | 442 kts | 216° |
| 2026-05-06 21:51 | 55.40526 | -0.80814 | 36063 ft | 442 kts | 216° |
| 2026-05-06 21:51 | 55.35313 | -0.86572 | 36061 ft | 443 kts | 216° |
| 2026-05-06 21:52 | 55.30092 | -0.92322 | 36064 ft | 443 kts | 216° |
| 2026-05-06 21:52 | 55.24866 | -0.98062 | 36045 ft | 444 kts | 216° |
| 2026-05-06 21:53 | 55.19741 | -1.03647 | 36059 ft | 444 kts | 213° |
| 2026-05-06 21:53 | 55.13981 | -1.07723 | 36069 ft | 450 kts | 200° |
| 2026-05-06 21:54 | 55.07990 | -1.10834 | 36057 ft | 451 kts | 199° |
| 2026-05-06 21:54 | 55.01981 | -1.13962 | 36055 ft | 451 kts | 200° |
| 2026-05-06 21:55 | 54.95994 | -1.17139 | 36060 ft | 451 kts | 200° |
| 2026-05-06 21:55 | 54.90034 | -1.20323 | 36071 ft | 451 kts | 200° |
| 2026-05-06 21:56 | 54.84035 | -1.23524 | 36068 ft | 451 kts | 200° |
| 2026-05-06 21:56 | 54.78025 | -1.26718 | 36071 ft | 452 kts | 200° |
| 2026-05-06 21:57 | 54.72016 | -1.29901 | 36058 ft | 452 kts | 199° |
| 2026-05-06 21:57 | 54.65992 | -1.33081 | 35923 ft | 454 kts | 199° |
| 2026-05-06 21:58 | 54.62974 | -1.34671 | 35578 ft | 451 kts | 199° |
| 2026-05-06 21:58 | 54.59992 | -1.36237 | 35189 ft | 447 kts | 199° |
| 2026-05-06 21:58 | 54.57025 | -1.37794 | 34792 ft | 444 kts | 199° |
| 2026-05-06 21:58 | 54.54083 | -1.39336 | 34396 ft | 441 kts | 199° |
| 2026-05-06 21:59 | 54.51145 | -1.40874 | 33956 ft | 440 kts | 199° |
| 2026-05-06 21:59 | 54.48222 | -1.42403 | 33500 ft | 438 kts | 198° |
| 2026-05-06 21:59 | 54.45319 | -1.43918 | 33086 ft | 434 kts | 199° |
| 2026-05-06 21:59 | 54.42436 | -1.45420 | 32694 ft | 431 kts | 199° |
| 2026-05-06 22:00 | 54.39574 | -1.46909 | 32301 ft | 428 kts | 199° |
| 2026-05-06 22:00 | 54.36737 | -1.48383 | 31919 ft | 425 kts | 199° |
| 2026-05-06 22:00 | 54.33918 | -1.49846 | 31543 ft | 422 kts | 199° |
| 2026-05-06 22:00 | 54.31121 | -1.51295 | 31163 ft | 419 kts | 199° |
| 2026-05-06 22:01 | 54.29275 | -1.52251 | 30925 ft | 417 kts | 199° |
| 2026-05-06 22:01 | 54.26510 | -1.53680 | 30550 ft | 414 kts | 199° |
| 2026-05-06 22:01 | 54.23767 | -1.55097 | 30189 ft | 411 kts | 199° |
| 2026-05-06 22:01 | 54.21038 | -1.56504 | 29762 ft | 407 kts | 199° |
| 2026-05-06 22:02 | 54.18337 | -1.57895 | 29378 ft | 403 kts | 199° |
| 2026-05-06 22:02 | 54.15669 | -1.59267 | 28974 ft | 399 kts | 199° |
| 2026-05-06 22:02 | 54.13030 | -1.60623 | 28597 ft | 394 kts | 199° |
| 2026-05-06 22:02 | 54.10410 | -1.61967 | 28211 ft | 391 kts | 199° |
| 2026-05-06 22:03 | 54.07812 | -1.63298 | 27844 ft | 387 kts | 199° |
| 2026-05-06 22:03 | 54.05242 | -1.64612 | 27461 ft | 384 kts | 199° |
| 2026-05-06 22:03 | 54.02715 | -1.66014 | 27084 ft | 379 kts | 207° |
| 2026-05-06 22:03 | 54.00575 | -1.68467 | 26894 ft | 366 kts | 225° |
| 2026-05-06 22:04 | 53.98725 | -1.71378 | 26642 ft | 361 kts | 226° |
| 2026-05-06 22:04 | 53.96913 | -1.74340 | 26423 ft | 364 kts | 226° |
| 2026-05-06 22:04 | 53.95077 | -1.77353 | 26200 ft | 369 kts | 226° |
| 2026-05-06 22:04 | 53.93219 | -1.80379 | 25967 ft | 370 kts | 226° |
| 2026-05-06 22:05 | 53.91390 | -1.83329 | 25727 ft | 366 kts | 226° |
| 2026-05-06 22:05 | 53.89544 | -1.86286 | 25509 ft | 364 kts | 226° |
| 2026-05-06 22:05 | 53.87703 | -1.89221 | 25268 ft | 361 kts | 225° |
| 2026-05-06 22:05 | 53.85881 | -1.92119 | 25039 ft | 359 kts | 225° |
| 2026-05-06 22:06 | 53.84063 | -1.95006 | 24832 ft | 356 kts | 225° |
| 2026-05-06 22:06 | 53.82260 | -1.97865 | 24616 ft | 355 kts | 225° |
| 2026-05-06 22:06 | 53.80531 | -2.00606 | 24401 ft | 353 kts | 225° |
| 2026-05-06 22:06 | 53.78740 | -2.03440 | 24185 ft | 352 kts | 225° |
| 2026-05-06 22:07 | 53.76950 | -2.06267 | 23972 ft | 351 kts | 225° |
| 2026-05-06 22:07 | 53.75154 | -2.09043 | 23729 ft | 351 kts | 220° |
| 2026-05-06 22:07 | 53.73002 | -2.10997 | 23475 ft | 355 kts | 199° |
| 2026-05-06 22:07 | 53.70620 | -2.12067 | 23258 ft | 354 kts | 195° |
| 2026-05-06 22:08 | 53.68259 | -2.13009 | 23024 ft | 353 kts | 195° |
| 2026-05-06 22:08 | 53.65903 | -2.13930 | 22800 ft | 352 kts | 195° |
| 2026-05-06 22:08 | 53.63527 | -2.14868 | 22574 ft | 350 kts | 195° |
| 2026-05-06 22:08 | 53.61166 | -2.15814 | 22355 ft | 349 kts | 195° |
| 2026-05-06 22:09 | 53.58812 | -2.16769 | 22142 ft | 348 kts | 196° |
| 2026-05-06 22:09 | 53.56462 | -2.17729 | 21930 ft | 347 kts | 196° |
| 2026-05-06 22:09 | 53.54121 | -2.18689 | 21718 ft | 345 kts | 196° |
| 2026-05-06 22:09 | 53.51788 | -2.19647 | 21498 ft | 344 kts | 196° |
| 2026-05-06 22:10 | 53.49459 | -2.20603 | 21282 ft | 343 kts | 196° |
| 2026-05-06 22:10 | 53.47145 | -2.21552 | 21071 ft | 342 kts | 196° |
| 2026-05-06 22:10 | 53.44835 | -2.22498 | 20859 ft | 341 kts | 196° |
| 2026-05-06 22:10 | 53.42544 | -2.23436 | 20643 ft | 339 kts | 196° |
| 2026-05-06 22:11 | 53.40251 | -2.24372 | 20434 ft | 338 kts | 196° |
| 2026-05-06 22:11 | 53.37964 | -2.25301 | 20224 ft | 337 kts | 195° |
| 2026-05-06 22:11 | 53.35626 | -2.25518 | 19978 ft | 341 kts | 173° |
| 2026-05-06 22:11 | 53.33396 | -2.24252 | 19680 ft | 347 kts | 155° |
| 2026-05-06 22:12 | 53.31274 | -2.22323 | 19366 ft | 347 kts | 153° |
| 2026-05-06 22:12 | 53.29170 | -2.20330 | 19026 ft | 347 kts | 152° |
| 2026-05-06 22:12 | 53.27080 | -2.18343 | 18691 ft | 344 kts | 153° |
| 2026-05-06 22:12 | 53.25000 | -2.16382 | 18361 ft | 342 kts | 153° |
| 2026-05-06 22:13 | 53.22930 | -2.14449 | 17992 ft | 339 kts | 153° |
| 2026-05-06 22:13 | 53.20879 | -2.12547 | 17639 ft | 336 kts | 153° |
| 2026-05-06 22:13 | 53.18846 | -2.10671 | 17307 ft | 333 kts | 153° |
| 2026-05-06 22:13 | 53.16826 | -2.08812 | 16989 ft | 330 kts | 153° |
| 2026-05-06 22:14 | 53.14826 | -2.06975 | 16671 ft | 327 kts | 153° |
| 2026-05-06 22:14 | 53.12844 | -2.05158 | 16366 ft | 324 kts | 153° |
| 2026-05-06 22:14 | 53.10871 | -2.03350 | 16060 ft | 321 kts | 153° |
| 2026-05-06 22:14 | 53.08917 | -2.01562 | 15760 ft | 319 kts | 153° |
| 2026-05-06 22:15 | 53.06978 | -1.99791 | 15460 ft | 317 kts | 153° |
| 2026-05-06 22:15 | 53.05045 | -1.98041 | 15156 ft | 315 kts | 155° |
| 2026-05-06 22:15 | 53.02969 | -1.97017 | 14840 ft | 310 kts | 176° |
| 2026-05-06 22:15 | 53.00830 | -1.96740 | 14576 ft | 308 kts | 178° |
| 2026-05-06 22:16 | 52.98699 | -1.96499 | 14277 ft | 310 kts | 178° |
| 2026-05-06 22:16 | 52.96530 | -1.96249 | 13984 ft | 313 kts | 178° |
| 2026-05-06 22:16 | 52.94352 | -1.95988 | 13658 ft | 313 kts | 178° |
| 2026-05-06 22:16 | 52.92182 | -1.95718 | 13330 ft | 312 kts | 177° |
| 2026-05-06 22:17 | 52.90020 | -1.95443 | 13019 ft | 311 kts | 177° |
| 2026-05-06 22:17 | 52.87875 | -1.95166 | 12715 ft | 309 kts | 177° |
| 2026-05-06 22:17 | 52.85732 | -1.94888 | 12419 ft | 307 kts | 177° |
| 2026-05-06 22:17 | 52.83610 | -1.94611 | 12126 ft | 305 kts | 177° |
| 2026-05-06 22:18 | 52.81497 | -1.94336 | 11834 ft | 303 kts | 177° |
| 2026-05-06 22:18 | 52.79396 | -1.94063 | 11546 ft | 301 kts | 177° |
| 2026-05-06 22:18 | 52.77358 | -1.93797 | 11147 ft | 295 kts | 177° |
| 2026-05-06 22:18 | 52.75304 | -1.93530 | 10617 ft | 294 kts | 177° |
| 2026-05-06 22:19 | 52.73292 | -1.93353 | 10062 ft | 293 kts | 185° |
| 2026-05-06 22:19 | 52.71358 | -1.94267 | 9470 ft | 289 kts | 212° |
| 2026-05-06 22:19 | 52.69756 | -1.96205 | 8989 ft | 283 kts | 220° |
| 2026-05-06 22:19 | 52.68239 | -1.98259 | 8453 ft | 281 kts | 224° |
| 2026-05-06 22:20 | 52.66792 | -2.00415 | 7939 ft | 280 kts | 225° |
| 2026-05-06 22:20 | 52.65374 | -2.02566 | 7575 ft | 273 kts | 225° |
| 2026-05-06 22:20 | 52.64076 | -2.04816 | 7098 ft | 270 kts | 236° |
| 2026-05-06 22:20 | 52.63040 | -2.07372 | 6658 ft | 267 kts | 239° |
| 2026-05-06 22:21 | 52.62049 | -2.09954 | 6214 ft | 265 kts | 240° |
| 2026-05-06 22:21 | 52.60873 | -2.12274 | 5676 ft | 268 kts | 218° |
| 2026-05-06 22:21 | 52.59171 | -2.13415 | 5446 ft | 262 kts | 188° |
| 2026-05-06 22:21 | 52.57387 | -2.13088 | 5179 ft | 261 kts | 159° |
| 2026-05-06 22:22 | 52.55965 | -2.11401 | 5052 ft | 248 kts | 127° |
| 2026-05-06 22:22 | 52.55281 | -2.08906 | 4834 ft | 237 kts | 96° |
| 2026-05-06 22:22 | 52.55477 | -2.06295 | 4523 ft | 230 kts | 66° |
| 2026-05-06 22:22 | 52.55799 | -2.05173 | 4374 ft | 229 kts | 60° |
| 2026-05-06 22:23 | 52.56685 | -2.03023 | 4129 ft | 224 kts | 51° |
| 2026-05-06 22:23 | 52.57636 | -2.01074 | 4100 ft | 212 kts | 50° |
| 2026-05-06 22:23 | 52.58552 | -1.99226 | 3928 ft | 205 kts | 50° |
| 2026-05-06 22:23 | 52.59193 | -1.97201 | 3666 ft | 201 kts | 78° |
| 2026-05-06 22:24 | 52.59288 | -1.94959 | 3552 ft | 190 kts | 85° |
| 2026-05-06 22:24 | 52.59354 | -1.92844 | 3384 ft | 183 kts | 85° |
| 2026-05-06 22:24 | 52.59217 | -1.90824 | 3079 ft | 185 kts | 114° |
| 2026-05-06 22:24 | 52.58323 | -1.89347 | 2831 ft | 182 kts | 143° |
| 2026-05-06 22:25 | 52.57308 | -1.88133 | 2513 ft | 180 kts | 141° |
| 2026-05-06 22:25 | 52.56276 | -1.86935 | 2520 ft | 183 kts | 142° |
| 2026-05-06 22:25 | 52.55239 | -1.85775 | 2486 ft | 175 kts | 143° |
| 2026-05-06 22:25 | 52.54258 | -1.84685 | 2282 ft | 166 kts | 142° |
| 2026-05-06 22:26 | 52.53346 | -1.83670 | 2120 ft | 157 kts | 142° |
| 2026-05-06 22:26 | 52.52448 | -1.82670 | 1889 ft | 156 kts | 142° |
| 2026-05-06 22:26 | 52.51556 | -1.81675 | 1662 ft | 152 kts | 142° |
| 2026-05-06 22:26 | 52.50711 | -1.80735 | 1454 ft | 145 kts | 142° |
| 2026-05-06 22:27 | 52.49880 | -1.79807 | 1245 ft | 145 kts | 143° |
| 2026-05-06 22:27 | 52.49043 | -1.78870 | 1025 ft | 146 kts | 143° |
| 2026-05-06 22:27 | 52.48202 | -1.77930 | 805 ft | 145 kts | 143° |
| 2026-05-06 22:27 | 52.47380 | -1.77014 | 621 ft | 144 kts | 142° |
| 2026-05-06 22:28 | 52.46592 | -1.76146 | 404 ft | 144 kts | 144° |
| 2026-05-06 22:28 | 52.45782 | -1.75248 | 321 ft | 130 kts | 143° |
| 2026-05-06 22:28 | 52.45160 | -1.74549 | 329 ft | 87 kts | 146° |
| 2026-05-06 22:28 | 52.44785 | -1.74134 | 323 ft | 44 kts | 146° |
| 2026-05-06 22:29 | 52.44667 | -1.74002 | 323 ft | 16 kts | 141° |
| 2026-05-06 22:29 | 52.44688 | -1.73850 | 322 ft | 15 kts | 57° |
| 2026-05-06 22:29 | 52.44731 | -1.73747 | 323 ft | 8 kts | 50° |
| 2026-05-06 22:29 | 52.44779 | -1.73707 | 323 ft | 8 kts | 16° |
| 2026-05-06 22:30 | 52.44830 | -1.73683 | 322 ft | 8 kts | 16° |
| 2026-05-06 22:30 | 52.44869 | -1.73626 | 322 ft | 8 kts | 55° |
| 2026-05-06 22:30 | 52.44896 | -1.73540 | 322 ft | 10 kts | 80° |
| 2026-05-06 22:30 | 52.44930 | -1.73437 | 321 ft | 11 kts | 55° |
| 2026-05-06 22:31 | 52.44972 | -1.73336 | 323 ft | 11 kts | 56° |
| 2026-05-06 22:31 | 52.45006 | -1.73253 | 323 ft | 4 kts | 56° |
| 2026-05-06 22:31 | 52.45025 | -1.73234 | 323 ft | 3 kts | 360° |
| 2026-05-06 22:31 | 52.45047 | -1.73253 | 323 ft | 4 kts | 326° |
| 2026-05-06 22:32 | 52.45058 | -1.73264 | 323 ft | 1 kts | 326° |
| 2026-05-06 22:32 | 52.45060 | -1.73267 | 323 ft | 0 kts | 326° |